createdAt,value
2018-04-11T00:01:37.133Z,99364.34
2018-04-11T00:04:04.589Z,99356.88
2018-04-11T00:06:32.188Z,99359.79
2018-04-11T00:08:59.636Z,99353.28
2018-04-11T00:11:36.792Z,99360.89
2018-04-11T00:14:04.238Z,99352.27
2018-04-11T00:16:31.713Z,99348.91
2018-04-11T00:18:59.171Z,99353.46
2018-04-11T00:21:26.657Z,99356.41
2018-04-11T00:23:54.133Z,99351.73
2018-04-11T00:26:21.632Z,99349.52
2018-04-11T00:28:49.082Z,99361.20
2018-04-11T00:31:16.560Z,99360.34
2018-04-11T00:33:43.996Z,99362.86
2018-04-11T00:36:11.680Z,99363.38
2018-04-11T00:38:39.158Z,99373.95
2018-04-11T00:41:06.597Z,99376.94
2018-04-11T00:43:34.080Z,99379.73
2018-04-11T00:46:01.549Z,99380.95
2018-04-11T00:48:29.434Z,99384.05
2018-04-11T00:50:56.892Z,99386.61
2018-04-11T00:53:28.214Z,99394.09
2018-04-11T00:55:55.668Z,99394.64
2018-04-11T00:58:23.117Z,99399.48
2018-04-11T01:00:50.614Z,99390.60
2018-04-11T01:03:18.072Z,99399.38
2018-04-11T01:05:45.523Z,99396.59
2018-04-11T01:08:13.320Z,99393.63
2018-04-11T01:10:40.855Z,99399.06
2018-04-11T01:13:08.302Z,99394.79
2018-04-11T01:15:35.766Z,99395.61
2018-04-11T01:18:03.242Z,99399.05
2018-04-11T01:23:27.953Z,99394.00
2018-04-11T01:25:55.440Z,99394.92
2018-04-11T01:28:22.970Z,99386.17
2018-04-11T01:30:50.474Z,99394.05
2018-04-11T01:33:17.924Z,99396.95
2018-04-11T01:35:45.395Z,99394.70
2018-04-11T01:38:12.898Z,99391.44
2018-04-11T01:40:40.359Z,99387.62
2018-04-11T01:43:07.901Z,99381.41
2018-04-11T01:45:35.354Z,99381.75
2018-04-11T01:48:03.051Z,99378.73
2018-04-11T01:53:23.348Z,99384.72
2018-04-11T01:55:50.808Z,99388.05
2018-04-11T01:58:18.241Z,99382.50
2018-04-11T02:00:45.681Z,99386.42
2018-04-11T02:03:13.263Z,99385.83
2018-04-11T02:05:40.741Z,99398.53
2018-04-11T02:08:08.258Z,99393.06
2018-04-11T02:10:35.757Z,99389.27
2018-04-11T02:13:03.243Z,99387.45
2018-04-11T02:15:30.778Z,99394.87
2018-04-11T02:17:58.518Z,99400.34
2018-04-11T02:20:26.068Z,99404.48
2018-04-11T02:22:53.555Z,99420.28
2018-04-11T02:25:21.022Z,99425.53
2018-04-11T02:27:48.498Z,99424.47
2018-04-11T02:30:15.969Z,99422.42
2018-04-11T02:32:43.427Z,99414.66
2018-04-11T02:35:10.861Z,99420.98
2018-04-11T02:37:38.323Z,99419.70
2018-04-11T02:40:05.790Z,99423.59
2018-04-11T02:42:33.224Z,99418.75
2018-04-11T02:45:00.687Z,99419.61
2018-04-11T02:47:28.165Z,99421.18
2018-04-11T02:49:55.842Z,99424.29
2018-04-11T02:52:23.948Z,99421.05
2018-04-11T02:54:51.391Z,99420.16
2018-04-11T02:57:18.894Z,99412.69
2018-04-11T02:59:46.316Z,99413.89
2018-04-11T03:02:13.836Z,99411.50
2018-04-11T03:04:41.353Z,99416.80
2018-04-11T03:07:08.858Z,99415.73
2018-04-11T03:09:36.343Z,99424.47
2018-04-11T03:12:03.810Z,99414.89
2018-04-11T03:14:31.295Z,99420.03
2018-04-11T03:16:58.866Z,99422.48
2018-04-11T03:19:26.331Z,99419.80
2018-04-11T03:21:53.851Z,99424.55
2018-04-11T03:24:21.290Z,99424.51
2018-04-11T03:26:48.783Z,99419.48
2018-04-11T03:29:16.239Z,99427.63
2018-04-11T03:32:02.979Z,99426.67
2018-04-11T03:34:30.475Z,99427.17
2018-04-11T03:36:58.031Z,99424.23
2018-04-11T03:39:25.492Z,99423.94
2018-04-11T03:41:53.528Z,99421.83
2018-04-11T03:44:21.051Z,99416.29
2018-04-11T03:46:48.505Z,99419.52
2018-04-11T03:49:15.989Z,99429.05
2018-04-11T03:51:43.603Z,99422.78
2018-04-11T03:54:11.190Z,99418.88
2018-04-11T03:56:38.633Z,99421.50
2018-04-11T03:59:06.091Z,99421.09
2018-04-11T04:01:33.554Z,99419.55
2018-04-11T04:04:01.052Z,99420.55
2018-04-11T04:06:28.590Z,99422.94
2018-04-11T04:08:56.052Z,99416.16
2018-04-11T04:11:23.503Z,99419.05
2018-04-11T04:14:02.659Z,99411.53
2018-04-11T04:16:41.778Z,99418.96
2018-04-11T04:19:20.987Z,99420.42
2018-04-11T04:21:48.436Z,99424.31
2018-04-11T04:24:15.891Z,99428.44
2018-04-11T04:26:43.400Z,99433.59
2018-04-11T04:29:10.854Z,99433.17
2018-04-11T04:31:38.340Z,99429.99
2018-04-11T04:34:05.822Z,99431.66
2018-04-11T04:36:33.285Z,99434.80
2018-04-11T04:39:00.768Z,99430.50
2018-04-11T04:41:28.259Z,99437.02
2018-04-11T04:43:55.710Z,99441.00
2018-04-11T04:46:23.208Z,99442.54
2018-04-11T04:48:50.671Z,99446.28
2018-04-11T04:51:18.235Z,99441.37
2018-04-11T04:53:45.683Z,99452.53
2018-04-11T04:56:13.335Z,99456.65
2018-04-11T04:58:41.054Z,99452.61
2018-04-11T05:01:08.541Z,99457.52
2018-04-11T05:03:35.998Z,99460.66
2018-04-11T05:06:03.500Z,99462.03
2018-04-11T05:08:30.950Z,99461.23
2018-04-11T05:10:58.405Z,99457.75
2018-04-11T05:13:25.876Z,99464.25
2018-04-11T05:15:53.371Z,99469.09
2018-04-11T05:18:21.277Z,99472.64
2018-04-11T05:20:48.755Z,99481.97
2018-04-11T05:23:16.216Z,99472.03
2018-04-11T05:25:43.792Z,99480.13
2018-04-11T05:28:11.274Z,99478.92
2018-04-11T05:31:02.477Z,99487.05
2018-04-11T05:33:30.025Z,99488.26
2018-04-11T05:35:57.573Z,99487.22
2018-04-11T05:38:25.072Z,99487.02
2018-04-11T05:40:52.563Z,99482.73
2018-04-11T05:43:20.032Z,99488.72
2018-04-11T05:45:47.512Z,99483.26
2018-04-11T05:48:15.010Z,99483.84
2018-04-11T05:50:42.479Z,99488.78
2018-04-11T05:53:09.950Z,99483.36
2018-04-11T05:55:37.450Z,99488.36
2018-04-11T05:58:05.853Z,99487.98
2018-04-11T06:00:33.392Z,99488.64
2018-04-11T06:03:00.942Z,99488.70
2018-04-11T06:05:28.456Z,99487.47
2018-04-11T06:07:56.010Z,99488.69
2018-04-11T06:10:23.502Z,99489.64
2018-04-11T06:12:51.058Z,99484.52
2018-04-11T06:15:18.598Z,99480.77
2018-04-11T06:17:47.111Z,99487.95
2018-04-11T06:20:14.681Z,99488.92
2018-04-11T06:22:44.802Z,99488.81
2018-04-11T06:25:12.630Z,99498.79
2018-04-11T06:27:41.137Z,99496.11
2018-04-11T06:30:08.591Z,99496.58
2018-04-11T06:32:36.792Z,99501.10
2018-04-11T06:35:04.427Z,99497.19
2018-04-11T06:37:31.835Z,99491.21
2018-04-11T06:39:59.324Z,99494.95
2018-04-11T06:42:26.930Z,99491.89
2018-04-11T06:44:54.433Z,99494.11
2018-04-11T06:47:22.171Z,99483.45
2018-04-11T06:49:49.711Z,99490.61
2018-04-11T06:52:17.179Z,99491.61
2018-04-11T06:54:44.659Z,99498.48
2018-04-11T06:57:12.157Z,99493.62
2018-04-11T06:59:39.629Z,99501.45
2018-04-11T07:02:07.109Z,99494.18
2018-04-11T07:04:36.327Z,99491.44
2018-04-11T07:07:03.771Z,99492.73
2018-04-11T07:09:32.518Z,99496.30
2018-04-11T07:12:00.071Z,99501.61
2018-04-11T07:14:27.789Z,99498.87
2018-04-11T07:16:56.222Z,99502.78
2018-04-11T07:19:23.774Z,99503.38
2018-04-11T07:21:56.249Z,99504.64
2018-04-11T07:24:23.961Z,99504.61
2018-04-11T07:26:51.396Z,99500.81
2018-04-11T07:29:18.876Z,99499.84
2018-04-11T07:31:56.250Z,99506.60
2018-04-11T07:34:24.535Z,99516.67
2018-04-11T07:36:52.924Z,99508.97
2018-04-11T07:39:20.512Z,99515.22
2018-04-11T07:44:41.491Z,99525.01
2018-04-11T07:47:08.974Z,99522.13
2018-04-11T07:49:36.434Z,99535.95
2018-04-11T07:52:03.914Z,99533.60
2018-04-11T07:54:31.526Z,99529.12
2018-04-11T07:56:59.016Z,99535.00
2018-04-11T07:59:26.493Z,99538.91
2018-04-11T08:01:53.992Z,99538.00
2018-04-11T08:04:21.460Z,99535.17
2018-04-11T08:06:48.919Z,99536.88
2018-04-11T08:09:16.370Z,99537.86
2018-04-11T08:11:43.840Z,99540.51
2018-04-11T08:14:11.339Z,99531.88
2018-04-11T08:16:38.856Z,99531.30
2018-04-11T08:19:06.326Z,99531.36
2018-04-11T08:21:33.778Z,99525.31
2018-04-11T08:24:00.677Z,99529.03
2018-04-11T08:26:28.173Z,99526.53
2018-04-11T08:28:55.637Z,99528.41
2018-04-11T08:31:23.151Z,99529.32
2018-04-11T08:33:50.618Z,99532.41
2018-04-11T08:36:18.258Z,99542.73
2018-04-11T08:38:45.190Z,99536.59
2018-04-11T08:41:12.649Z,99538.77
2018-04-11T08:43:40.149Z,99536.14
2018-04-11T08:46:07.660Z,99534.81
2018-04-11T08:48:35.151Z,99543.91
2018-04-11T08:51:02.858Z,99534.52
2018-04-11T08:53:30.337Z,99539.17
2018-04-11T08:55:57.831Z,99540.27
2018-04-11T08:58:25.274Z,99541.31
2018-04-11T09:00:52.773Z,99547.61
2018-04-11T09:03:20.253Z,99551.16
2018-04-11T09:05:47.756Z,99542.98
2018-04-11T09:08:15.206Z,99548.14
2018-04-11T09:10:42.719Z,99540.48
2018-04-11T09:13:10.162Z,99549.09
2018-04-11T09:15:37.623Z,99546.46
2018-04-11T09:18:05.090Z,99547.84
2018-04-11T09:20:32.559Z,99544.50
2018-04-11T09:23:00.055Z,99548.75
2018-04-11T09:25:27.515Z,99553.22
2018-04-11T09:27:55.836Z,99549.07
2018-04-11T09:30:23.322Z,99549.80
2018-04-11T09:32:50.792Z,99552.77
2018-04-11T09:35:18.266Z,99553.17
2018-04-11T09:37:45.723Z,99555.33
2018-04-11T09:40:13.202Z,99551.41
2018-04-11T09:42:40.736Z,99556.94
2018-04-11T09:45:08.445Z,99559.34
2018-04-11T09:47:35.937Z,99559.16
2018-04-11T09:50:03.620Z,99558.36
2018-04-11T09:52:31.124Z,99553.71
2018-04-11T09:54:58.646Z,99553.88
2018-04-11T09:57:26.114Z,99549.73
2018-04-11T09:59:53.680Z,99557.98
2018-04-11T10:02:24.075Z,99554.84
2018-04-11T10:04:51.642Z,99552.30
2018-04-11T10:07:19.359Z,99560.34
2018-04-11T10:09:46.841Z,99551.64
2018-04-11T10:12:14.306Z,99549.23
2018-04-11T10:14:42.000Z,99559.40
2018-04-11T10:17:09.474Z,99558.28
2018-04-11T10:19:36.936Z,99557.25
2018-04-11T10:22:04.408Z,99552.67
2018-04-11T10:24:31.850Z,99555.09
2018-04-11T10:26:59.366Z,99546.47
2018-04-11T10:29:26.837Z,99545.52
2018-04-11T10:31:54.297Z,99548.52
2018-04-11T10:34:21.770Z,99543.58
2018-04-11T10:36:49.238Z,99538.55
2018-04-11T10:39:16.736Z,99546.50
2018-04-11T10:41:44.188Z,99547.58
2018-04-11T10:44:11.790Z,99543.13
2018-04-11T10:46:39.243Z,99540.67
2018-04-11T10:49:06.704Z,99532.33
2018-04-11T10:51:34.238Z,99531.88
2018-04-11T10:54:01.682Z,99527.63
2018-04-11T10:56:29.144Z,99534.78
2018-04-11T10:58:56.598Z,99536.70
2018-04-11T11:01:24.069Z,99541.94
2018-04-11T11:03:51.557Z,99533.15
2018-04-11T11:06:19.048Z,99533.02
2018-04-11T11:08:46.500Z,99522.91
2018-04-11T11:11:13.953Z,99533.85
2018-04-11T11:13:41.405Z,99532.70
2018-04-11T11:16:08.849Z,99526.70
2018-04-11T11:18:36.394Z,99530.20
2018-04-11T11:21:03.852Z,99523.03
2018-04-11T11:23:31.282Z,99527.38
2018-04-11T11:25:58.772Z,99528.28
2018-04-11T11:28:26.203Z,99520.35
2018-04-11T11:30:53.744Z,99515.86
2018-04-11T11:33:21.212Z,99523.41
2018-04-11T11:35:48.681Z,99524.39
2018-04-11T11:38:16.422Z,99525.63
2018-04-11T11:40:43.913Z,99525.45
2018-04-11T11:43:11.402Z,99526.31
2018-04-11T11:45:38.907Z,99520.98
2018-04-11T11:48:06.378Z,99520.03
2018-04-11T11:50:33.864Z,99522.77
2018-04-11T11:53:01.339Z,99513.03
2018-04-11T11:55:28.839Z,99514.33
2018-04-11T11:57:56.316Z,99514.15
2018-04-11T12:00:23.823Z,99513.52
2018-04-11T12:02:51.302Z,99514.95
2018-04-11T12:05:18.774Z,99528.89
2018-04-11T12:07:46.230Z,99520.16
2018-04-11T12:10:13.722Z,99516.52
2018-04-11T12:12:41.196Z,99514.34
2018-04-11T12:15:08.674Z,99511.39
2018-04-11T12:17:36.128Z,99510.37
2018-04-11T12:20:03.629Z,99514.11
2018-04-11T12:22:31.138Z,99508.73
2018-04-11T12:24:58.661Z,99511.19
2018-04-11T12:27:26.148Z,99504.59
2018-04-11T12:29:53.677Z,99503.91
2018-04-11T12:32:21.181Z,99500.70
2018-04-11T12:34:48.732Z,99501.14
2018-04-11T12:37:16.203Z,99497.41
2018-04-11T12:39:43.661Z,99495.70
2018-04-11T12:42:11.119Z,99488.82
2018-04-11T12:44:38.602Z,99484.67
2018-04-11T12:47:06.072Z,99484.04
2018-04-11T12:49:33.569Z,99477.78
2018-04-11T12:52:01.025Z,99478.55
2018-04-11T12:54:28.478Z,99480.77
2018-04-11T12:56:55.930Z,99470.69
2018-04-11T12:59:23.416Z,99472.58
2018-04-11T13:01:50.974Z,99477.30
2018-04-11T13:04:18.524Z,99469.83
2018-04-11T13:06:46.134Z,99469.19
2018-04-11T13:09:13.669Z,99462.40
2018-04-11T13:11:41.356Z,99459.86
2018-04-11T13:14:08.881Z,99460.24
2018-04-11T13:16:36.368Z,99459.96
2018-04-11T13:19:03.874Z,99457.25
2018-04-11T13:21:31.387Z,99453.41
2018-04-11T13:23:58.891Z,99450.26
2018-04-11T13:26:26.359Z,99454.27
2018-04-11T13:28:53.907Z,99444.21
2018-04-11T13:31:21.389Z,99447.17
2018-04-11T13:33:48.863Z,99437.52
2018-04-11T13:36:16.379Z,99432.47
2018-04-11T13:38:43.832Z,99428.51
2018-04-11T13:41:11.292Z,99426.27
2018-04-11T13:43:38.738Z,99426.48
2018-04-11T13:46:06.233Z,99430.21
2018-04-11T13:48:33.786Z,99418.10
2018-04-11T13:51:01.242Z,99415.03
2018-04-11T13:53:28.737Z,99425.70
2018-04-11T13:55:56.202Z,99419.26
2018-04-11T13:58:23.670Z,99421.61
2018-04-11T14:00:51.096Z,99424.72
2018-04-11T14:03:19.155Z,99418.84
2018-04-11T14:05:46.630Z,99422.80
2018-04-11T14:08:14.160Z,99420.08
2018-04-11T14:10:41.646Z,99414.58
2018-04-11T14:13:09.097Z,99419.09
2018-04-11T14:15:36.536Z,99415.78
2018-04-11T14:18:04.038Z,99414.16
2018-04-11T14:20:36.574Z,99418.50
2018-04-11T14:23:04.112Z,99421.53
2018-04-11T14:25:31.712Z,99421.92
2018-04-11T14:27:59.151Z,99426.25
2018-04-11T14:30:26.627Z,99423.94
2018-04-11T14:32:54.095Z,99425.23
2018-04-11T14:35:21.603Z,99420.09
2018-04-11T14:37:49.062Z,99415.56
2018-04-11T14:40:16.565Z,99419.52
2018-04-11T14:42:44.301Z,99413.27
2018-04-11T14:45:11.757Z,99416.59
2018-04-11T14:47:39.223Z,99415.66
2018-04-11T14:50:06.711Z,99424.06
2018-04-11T14:52:34.179Z,99424.81
2018-04-11T14:55:01.667Z,99429.56
2018-04-11T14:57:29.181Z,99428.92
2018-04-11T14:59:56.691Z,99425.98
2018-04-11T15:02:24.165Z,99428.30
2018-04-11T15:04:51.635Z,99438.09
2018-04-11T15:07:19.119Z,99438.44
2018-04-11T15:09:46.564Z,99442.27
2018-04-11T15:12:14.067Z,99453.05
2018-04-11T15:14:42.008Z,99451.43
2018-04-11T15:17:09.476Z,99446.03
2018-04-11T15:19:36.981Z,99442.16
2018-04-11T15:22:04.427Z,99440.02
2018-04-11T15:24:31.890Z,99438.92
2018-04-11T15:26:59.638Z,99439.41
2018-04-11T15:29:27.087Z,99452.23
2018-04-11T15:31:54.553Z,99446.83
2018-04-11T15:34:22.126Z,99449.76
2018-04-11T15:36:49.591Z,99453.23
2018-04-11T15:39:17.041Z,99450.48
2018-04-11T15:41:44.521Z,99461.41
2018-04-11T15:44:12.043Z,99461.56
2018-04-11T15:46:39.543Z,99472.77
2018-04-11T15:49:07.013Z,99479.16
2018-04-11T15:51:34.663Z,99470.66
2018-04-11T15:54:02.176Z,99451.95
2018-04-11T15:56:29.649Z,99443.50
2018-04-11T15:58:57.144Z,99437.40
2018-04-11T16:01:48.503Z,99439.59
2018-04-11T16:04:15.987Z,99432.26
2018-04-11T16:06:43.463Z,99417.92
2018-04-11T16:09:10.924Z,99401.44
2018-04-11T16:11:38.439Z,99390.42
2018-04-11T16:14:05.912Z,99399.41
2018-04-11T16:16:33.396Z,99402.06
2018-04-11T16:19:00.861Z,99412.38
2018-04-11T16:21:33.289Z,99435.95
2018-04-11T16:24:00.761Z,99455.46
2018-04-11T16:26:29.535Z,99440.94
2018-04-11T16:28:57.041Z,99417.37
2018-04-11T16:31:24.505Z,99412.50
2018-04-11T16:33:52.017Z,99407.48
2018-04-11T16:36:19.563Z,99408.91
2018-04-11T16:38:46.990Z,99399.70
2018-04-11T16:41:14.476Z,99391.63
2018-04-11T16:43:41.925Z,99392.30
2018-04-11T16:46:09.417Z,99394.50
2018-04-11T16:48:36.927Z,99392.11
2018-04-11T16:51:04.382Z,99396.11
2018-04-11T16:53:31.847Z,99390.59
2018-04-11T16:55:59.337Z,99389.44
2018-04-11T16:58:26.826Z,99386.56
2018-04-11T17:00:54.372Z,99388.27
2018-04-11T17:03:21.960Z,99386.38
2018-04-11T17:05:49.454Z,99387.78
2018-04-11T17:08:16.931Z,99386.97
2018-04-11T17:10:44.559Z,99382.53
2018-04-11T17:13:12.050Z,99375.98
2018-04-11T17:15:39.507Z,99382.98
2018-04-11T17:18:06.980Z,99377.96
2018-04-11T17:20:46.158Z,99379.09
2018-04-11T17:23:25.462Z,99384.46
2018-04-11T17:26:04.820Z,99388.36
2018-04-11T17:28:44.216Z,99386.25
2018-04-11T17:31:26.640Z,99387.00
2018-04-11T17:33:54.102Z,99385.85
2018-04-11T17:36:21.563Z,99392.97
2018-04-11T17:38:49.284Z,99393.64
2018-04-11T17:41:16.880Z,99394.59
2018-04-11T17:43:44.372Z,99392.92
2018-04-11T17:46:11.873Z,99396.74
2018-04-11T17:48:39.356Z,99389.83
2018-04-11T17:51:06.948Z,99398.80
2018-04-11T17:53:34.523Z,99391.59
2018-04-11T17:56:02.288Z,99398.16
2018-04-11T17:58:29.796Z,99400.67
2018-04-11T18:01:02.388Z,99409.50
2018-04-11T18:03:30.890Z,99416.41
2018-04-11T18:05:58.390Z,99416.98
2018-04-11T18:08:25.956Z,99413.72
2018-04-11T18:10:53.486Z,99425.67
2018-04-11T18:13:21.172Z,99428.84
2018-04-11T18:15:48.787Z,99419.17
2018-04-11T18:18:16.338Z,99419.48
2018-04-11T18:20:43.934Z,99418.31
2018-04-11T18:23:11.460Z,99416.97
2018-04-11T18:25:38.952Z,99418.36
2018-04-11T18:28:06.466Z,99419.39
2018-04-11T18:30:34.135Z,99420.52
2018-04-11T18:33:01.616Z,99430.10
2018-04-11T18:35:29.461Z,99429.46
2018-04-11T18:37:56.969Z,99434.97
2018-04-11T18:40:34.194Z,99436.48
2018-04-11T18:43:01.701Z,99442.69
2018-04-11T18:45:29.209Z,99438.83
2018-04-11T18:47:57.022Z,99441.09
2018-04-11T18:50:24.552Z,99437.70
2018-04-11T18:52:52.113Z,99440.65
2018-04-11T18:55:19.747Z,99440.65
2018-04-11T18:57:47.329Z,99444.78
2018-04-11T19:00:14.824Z,99438.36
2018-04-11T19:02:42.365Z,99440.25
2018-04-11T19:05:09.929Z,99438.14
2018-04-11T19:07:37.556Z,99437.48
2018-04-11T19:10:05.092Z,99438.95
2018-04-11T19:12:32.676Z,99438.09
2018-04-11T19:15:00.232Z,99437.67
2018-04-11T19:17:27.846Z,99439.39
2018-04-11T19:19:55.474Z,99438.88
2018-04-11T19:22:23.985Z,99432.94
2018-04-11T19:24:51.599Z,99434.02
2018-04-11T19:27:19.116Z,99432.05
2018-04-11T19:29:46.583Z,99433.44
2018-04-11T19:32:14.080Z,99434.78
2018-04-11T19:34:41.606Z,99424.44
2018-04-11T19:37:09.229Z,99424.16
2018-04-11T19:39:36.765Z,99426.97
2018-04-11T19:42:04.320Z,99424.95
2018-04-11T19:44:31.814Z,99423.39
2018-04-11T19:46:59.343Z,99423.84
2018-04-11T19:49:27.389Z,99419.54
2018-04-11T19:52:09.283Z,99417.20
2018-04-11T19:54:36.812Z,99415.69
2018-04-11T19:57:04.535Z,99410.36
2018-04-11T19:59:32.108Z,99414.76
2018-04-11T20:01:59.843Z,99417.25
2018-04-11T20:04:27.359Z,99416.67
2018-04-11T20:06:54.904Z,99419.41
2018-04-11T20:09:22.416Z,99416.41
2018-04-11T20:11:50.010Z,99418.50
2018-04-11T20:14:17.489Z,99415.14
2018-04-11T20:16:45.725Z,99410.87
2018-04-11T20:19:14.071Z,99409.94
2018-04-11T20:21:41.644Z,99411.06
2018-04-11T20:24:09.201Z,99406.80
2018-04-11T20:26:36.778Z,99400.92
2018-04-11T20:29:04.686Z,99398.13
2018-04-11T20:31:32.236Z,99404.04
2018-04-11T20:33:59.706Z,99394.14
2018-04-11T20:36:27.473Z,99397.89
2018-04-11T20:38:55.098Z,99398.94
2018-04-11T20:41:22.626Z,99389.20
2018-04-11T20:43:50.287Z,99394.00
2018-04-11T20:46:17.758Z,99386.88
2018-04-11T20:48:45.253Z,99389.17
2018-04-11T20:51:14.236Z,99388.38
2018-04-11T20:53:41.772Z,99389.77
2018-04-11T20:56:09.318Z,99382.43
2018-04-11T20:58:36.810Z,99377.81
2018-04-11T21:01:04.313Z,99383.05
2018-04-11T21:03:32.045Z,99384.66
2018-04-11T21:05:59.601Z,99389.02
2018-04-11T21:08:27.094Z,99381.38
2018-04-11T21:10:54.632Z,99369.30
2018-04-11T21:13:22.117Z,99375.78
2018-04-11T21:15:49.611Z,99366.14
2018-04-11T21:18:17.108Z,99373.98
2018-04-11T21:20:44.591Z,99371.81
2018-04-11T21:23:12.031Z,99377.07
2018-04-11T21:25:39.549Z,99380.74
2018-04-11T21:28:07.004Z,99384.36
2018-04-11T21:30:44.402Z,99387.86
2018-04-11T21:33:11.894Z,99380.94
2018-04-11T21:35:39.411Z,99378.08
2018-04-11T21:38:06.952Z,99371.03
2018-04-11T21:40:34.510Z,99373.06
2018-04-11T21:43:01.993Z,99367.98
2018-04-11T21:45:29.498Z,99368.53
2018-04-11T21:47:56.976Z,99360.94
2018-04-11T21:50:24.528Z,99366.25
2018-04-11T21:52:52.019Z,99367.29
2018-04-11T21:55:19.495Z,99365.38
2018-04-11T21:57:46.933Z,99368.69
2018-04-11T22:00:14.426Z,99366.81
2018-04-11T22:02:41.931Z,99369.98
2018-04-11T22:05:09.421Z,99362.73
2018-04-11T22:07:36.869Z,99365.61
2018-04-11T22:10:04.390Z,99371.06
2018-04-11T22:12:31.818Z,99369.66
2018-04-11T22:14:59.991Z,99361.41
2018-04-11T22:17:28.052Z,99360.23
2018-04-11T22:19:55.528Z,99363.03
2018-04-11T22:22:23.013Z,99361.52
2018-04-11T22:24:50.457Z,99360.69
2018-04-11T22:27:17.927Z,99359.23
2018-04-11T22:29:45.392Z,99361.73
2018-04-11T22:32:12.934Z,99367.50
2018-04-11T22:34:40.440Z,99364.31
2018-04-11T22:37:07.893Z,99358.78
2018-04-11T22:39:35.393Z,99358.55
2018-04-11T22:42:02.835Z,99358.55
2018-04-11T22:44:30.321Z,99366.01
2018-04-11T22:46:57.775Z,99356.49
2018-04-11T22:49:25.257Z,99363.25
2018-04-11T22:51:52.715Z,99354.39
2018-04-11T22:54:20.160Z,99356.72
2018-04-11T22:56:47.657Z,99355.86
2018-04-11T22:59:15.228Z,99354.95
2018-04-11T23:01:42.733Z,99357.58
2018-04-11T23:04:10.204Z,99355.03
2018-04-11T23:06:37.663Z,99354.64
2018-04-11T23:09:05.159Z,99352.36
2018-04-11T23:11:32.615Z,99351.19
2018-04-11T23:14:00.076Z,99349.56
2018-04-11T23:16:27.559Z,99351.36
2018-04-11T23:18:55.056Z,99345.77
2018-04-11T23:21:22.557Z,99341.74
2018-04-11T23:23:50.034Z,99342.38
2018-04-11T23:26:17.506Z,99343.11
2018-04-11T23:28:45.022Z,99341.97
2018-04-11T23:31:12.747Z,99341.31
2018-04-11T23:33:40.232Z,99337.30
2018-04-11T23:36:07.679Z,99338.40
2018-04-11T23:38:35.166Z,99334.95
2018-04-11T23:41:02.680Z,99335.66
2018-04-11T23:43:30.149Z,99327.40
2018-04-11T23:45:57.653Z,99321.45
2018-04-11T23:48:25.123Z,99313.63
2018-04-11T23:50:52.609Z,99315.19
2018-04-11T23:53:20.089Z,99311.78
2018-04-11T23:55:47.563Z,99317.77
2018-04-11T23:58:15.037Z,99315.58
